MAPA DE AEROPUERTO

INFORMACIÓN METAR y TAF

METAR FOR GCHI
ADDS - METARS form results

(1712 UTC 07 May 2021)
Data provider http://aviationweather.gov/metar/data/
 
METAR text: GCHI 071700Z 01010KT 340V050 9999 FEW025 23/14 Q1018
Conditions at: GCHI (HIERRO AIRPORT , ES) observed 1700 UTC 07 May 2021
Temperature: 23.0°C (73°F)
Dewpoint: 14.0°C (57°F) [RH = 57%]
Pressure (altimeter): 30.06 inches Hg (1018.0 mb)
Winds: from the N (10 degrees) at 12 MPH (10 knots; 5.1 m/s)
Visibility: 6 or more miles (10+ km)
Ceiling: at least 12,000 feet AGL
Clouds: few clouds at 2500 feet AGL
Weather: no significant weather observed at this time

METAR text: GCHI 071630Z 01010KT 340V050 9999 FEW025 22/14 Q1018
Conditions at: GCHI (HIERRO AIRPORT , ES) observed 1630 UTC 07 May 2021
Temperature: 22.0°C (72°F)
Dewpoint: 14.0°C (57°F) [RH = 60%]
Pressure (altimeter): 30.06 inches Hg (1018.0 mb)
Winds: from the N (10 degrees) at 12 MPH (10 knots; 5.1 m/s)
Visibility: 6 or more miles (10+ km)
Ceiling: at least 12,000 feet AGL
Clouds: few clouds at 2500 feet AGL
Weather: no significant weather observed at this time

Forecast for: GCHI (HIERRO AIRPORT , ES)
Text: TAF GCHI 071400Z 0715/0815 01009KT 9999 SCT025 TX23/0814Z TN19/0806Z
Forecast period: 1500 UTC 07 May 2021 to 1500 UTC 08 May 2021
Forecast type: FROM: standard forecast or significant change
Winds: from the N (10 degrees) at 10 MPH (9 knots; 4.6 m/s)
Visibility: 6 or more miles (10+ km)
Ceiling: at least 12,000 feet AGL
Clouds: scattered clouds at 2500 feet AGL
Weather: no significant weather forecast for this period